This is the latest recevied weather packets stored in our database for station/object KU9TRY. If no packets are shown the sender has not sent any weather packets the latest 10 day(s).
| Time | Temp. | Humidity | Pressure | Rain* | Wind** | Luminosity | Snow |
|---|---|---|---|---|---|---|---|
| 1777358822 | 18.89° C | 89% | 1015.2 hPa | 7.87 mm | - | 0 W/m² | - |
| 1777358216 | 18.33° C | 91% | 1013.7 hPa | 4.83 mm | - | 0 W/m² | - |
| 1777357915 | 18.89° C | 88% | 1013.9 hPa | 14.99 mm | - | 0 W/m² | - |
| 1777357611 | 20.56° C | 81% | 1013.6 hPa | 13.72 mm | - | 0 W/m² | - |
| 1777357307 | 21.67° C | 67% | 1013 hPa | 0 mm | - | 0 W/m² | - |
| 1777357005 | 22.22° C | 68% | 1012.8 hPa | 0 mm | - | 0 W/m² | - |
| 1777356702 | 22.22° C | 63% | 1013.4 hPa | 0 mm | - | 0 W/m² | - |
| 1777356399 | 22.22° C | 61% | 1013 hPa | 0 mm | - | 0 W/m² | - |
| 1777356096 | 22.22° C | 61% | 1013.2 hPa | 0 mm | - | 0 W/m² | - |
| 1777355793 | 22.22° C | 61% | 1013.2 hPa | 0 mm | - | 0 W/m² | - |
| 1777355489 | 22.78° C | 61% | 1013.1 hPa | 0 mm | - | 0 W/m² | - |
| 1777355186 | 22.78° C | 61% | 1013 hPa | 0 mm | - | 0 W/m² | - |
| 1777354882 | 22.22° C | 62% | 1012.5 hPa | 0 mm | - | 0 W/m² | - |
| 1777354579 | 22.22° C | 64% | 1013 hPa | 0 mm | - | 0 W/m² | - |
| 1777354274 | 22.22° C | 64% | 1013.1 hPa | 0 mm | - | 0 W/m² | - |
| 1777353971 | 22.78° C | 63% | 1013.5 hPa | 0 mm | - | 0 W/m² | - |
| 1777353668 | 23.33° C | 61% | 1013.5 hPa | 0 mm | - | 0 W/m² | - |
| 1777353366 | 23.33° C | 58% | 1013.6 hPa | 0 mm | - | 0 W/m² | - |
| 1777353063 | 23.33° C | 58% | 1013.6 hPa | 0 mm | - | 0 W/m² | - |
| 1777352762 | 23.33° C | 58% | 1013.7 hPa | 0 mm | - | 0 W/m² | - |
| 1777352460 | 23.89° C | 59% | 1013.9 hPa | 0 mm | - | 0 W/m² | - |
| 1777352156 | 23.33° C | 58% | 1013.7 hPa | 0 mm | - | 0 W/m² | - |
| 1777351854 | 23.33° C | 58% | 1013.6 hPa | 0 mm | - | 0 W/m² | - |
| 1777351552 | 23.33° C | 58% | 1013.7 hPa | 0 mm | - | 0 W/m² | - |
| 1777351250 | 23.89° C | 58% | 1013.6 hPa | 0 mm | - | 0 W/m² | - |
* Rain latest hour (hover to see other rain measurements)
** Current wind speed in m/s (hover to see current wind gust speed)